Porthill, Idaho
Current Conditions -  °F | °C
As of 6:35 PM on Friday 24 Oct 2014 (Local Time) from K65S Reporting Station
Scattered Clouds Scattered Clouds  
Wind Chill: 46°   Ceiling: Unl
Heat Index: 46°   Visibility: 10mi
Dew Point: 41°   Wind: 0mph
Humidity: 81%   Direction: NA
Pressure: 30.06"   Gusts: NA
Location:  49°N, 116.5°W
Report Text: K65S 250135Z AUTO 00000KT 10SM SCT060 08/05 A3006 RMK AO2
Loading
Personal Weather Stations






























Interactive Weather Map
Tropical Storm Tracking
New forecast layout! Learn more

10-Day Weather Forecast

Advertisements
Track Severe Weather on mobile